sensor_id;sensor_type;location;lat;lon;timestamp;temperature;humidity
24226;DHT22;51462;51.422;5.514;2023-04-03T00:02:16;3.80;99.90
24226;DHT22;51462;51.422;5.514;2023-04-03T00:04:42;3.80;99.90
24226;DHT22;51462;51.422;5.514;2023-04-03T00:07:07;3.70;99.90
24226;DHT22;51462;51.422;5.514;2023-04-03T00:09:33;3.70;99.90
24226;DHT22;51462;51.422;5.514;2023-04-03T00:11:58;3.70;99.90
24226;DHT22;51462;51.422;5.514;2023-04-03T00:14:24;3.80;99.90
24226;DHT22;51462;51.422;5.514;2023-04-03T00:16:50;3.80;99.90
24226;DHT22;51462;51.422;5.514;2023-04-03T00:19:15;3.60;99.90
24226;DHT22;51462;51.422;5.514;2023-04-03T00:21:41;3.60;99.90
24226;DHT22;51462;51.422;5.514;2023-04-03T00:24:06;3.50;99.90
24226;DHT22;51462;51.422;5.514;2023-04-03T00:26:32;3.50;99.90
24226;DHT22;51462;51.422;5.514;2023-04-03T00:28:57;3.40;99.90
24226;DHT22;51462;51.422;5.514;2023-04-03T00:31:23;3.40;99.90
24226;DHT22;51462;51.422;5.514;2023-04-03T00:33:48;3.40;99.90
24226;DHT22;51462;51.422;5.514;2023-04-03T00:36:15;3.20;99.90
24226;DHT22;51462;51.422;5.514;2023-04-03T00:38:41;3.30;99.90
24226;DHT22;51462;51.422;5.514;2023-04-03T00:41:06;3.30;99.90
24226;DHT22;51462;51.422;5.514;2023-04-03T00:43:32;3.30;99.90
24226;DHT22;51462;51.422;5.514;2023-04-03T00:45:59;3.10;99.90
24226;DHT22;51462;51.422;5.514;2023-04-03T00:48:31;3.10;99.90
24226;DHT22;51462;51.422;5.514;2023-04-03T00:50:59;3.20;99.90
24226;DHT22;51462;51.422;5.514;2023-04-03T00:53:30;3.20;99.90
24226;DHT22;51462;51.422;5.514;2023-04-03T00:55:57;3.20;99.90
24226;DHT22;51462;51.422;5.514;2023-04-03T00:58:32;3.10;99.90
24226;DHT22;51462;51.422;5.514;2023-04-03T01:00:59;3.10;99.90
24226;DHT22;51462;51.422;5.514;2023-04-03T01:03:28;3.20;99.90
24226;DHT22;51462;51.422;5.514;2023-04-03T01:05:53;3.20;99.90
24226;DHT22;51462;51.422;5.514;2023-04-03T01:08:19;3.10;99.90
24226;DHT22;51462;51.422;5.514;2023-04-03T01:10:44;3.00;99.90
24226;DHT22;51462;51.422;5.514;2023-04-03T01:13:31;3.10;99.90
24226;DHT22;51462;51.422;5.514;2023-04-03T01:15:57;3.10;99.90
24226;DHT22;51462;51.422;5.514;2023-04-03T01:18:26;3.00;99.90
24226;DHT22;51462;51.422;5.514;2023-04-03T01:21:17;3.00;99.90
24226;DHT22;51462;51.422;5.514;2023-04-03T01:26:28;3.00;99.90
24226;DHT22;51462;51.422;5.514;2023-04-03T01:28:55;2.90;99.90
24226;DHT22;51462;51.422;5.514;2023-04-03T01:31:54;3.00;99.90
24226;DHT22;51462;51.422;5.514;2023-04-03T01:34:21;2.80;99.90
24226;DHT22;51462;51.422;5.514;2023-04-03T01:36:47;2.80;99.90
24226;DHT22;51462;51.422;5.514;2023-04-03T01:39:13;2.80;99.90
24226;DHT22;51462;51.422;5.514;2023-04-03T01:41:39;2.80;99.90
24226;DHT22;51462;51.422;5.514;2023-04-03T01:44:04;2.70;99.90
24226;DHT22;51462;51.422;5.514;2023-04-03T01:46:30;2.80;99.90
24226;DHT22;51462;51.422;5.514;2023-04-03T01:48:55;2.70;99.90
24226;DHT22;51462;51.422;5.514;2023-04-03T01:51:21;2.60;99.90
24226;DHT22;51462;51.422;5.514;2023-04-03T01:53:47;2.60;99.90
24226;DHT22;51462;51.422;5.514;2023-04-03T01:56:12;2.60;99.90
24226;DHT22;51462;51.422;5.514;2023-04-03T01:58:38;2.60;99.90
24226;DHT22;51462;51.422;5.514;2023-04-03T02:01:04;2.60;99.90
24226;DHT22;51462;51.422;5.514;2023-04-03T02:03:30;2.70;99.90
24226;DHT22;51462;51.422;5.514;2023-04-03T02:05:56;2.60;99.90
24226;DHT22;51462;51.422;5.514;2023-04-03T02:08:22;2.60;99.90
24226;DHT22;51462;51.422;5.514;2023-04-03T02:10:48;2.70;99.90
24226;DHT22;51462;51.422;5.514;2023-04-03T02:13:14;2.60;99.90
24226;DHT22;51462;51.422;5.514;2023-04-03T02:15:41;2.70;99.90
24226;DHT22;51462;51.422;5.514;2023-04-03T02:18:07;2.70;99.90
24226;DHT22;51462;51.422;5.514;2023-04-03T02:20:32;2.60;99.90
24226;DHT22;51462;51.422;5.514;2023-04-03T02:22:59;2.50;99.90
24226;DHT22;51462;51.422;5.514;2023-04-03T02:25:25;2.60;99.90
24226;DHT22;51462;51.422;5.514;2023-04-03T02:27:50;2.50;99.90
24226;DHT22;51462;51.422;5.514;2023-04-03T02:30:16;2.60;99.90
24226;DHT22;51462;51.422;5.514;2023-04-03T02:32:42;2.60;99.90
24226;DHT22;51462;51.422;5.514;2023-04-03T02:35:08;2.60;99.90
24226;DHT22;51462;51.422;5.514;2023-04-03T02:37:34;2.60;99.90
24226;DHT22;51462;51.422;5.514;2023-04-03T02:40:00;2.50;99.90
24226;DHT22;51462;51.422;5.514;2023-04-03T02:42:26;2.50;99.90
24226;DHT22;51462;51.422;5.514;2023-04-03T02:44:51;2.40;99.90
24226;DHT22;51462;51.422;5.514;2023-04-03T02:47:17;2.40;99.90
24226;DHT22;51462;51.422;5.514;2023-04-03T02:49:43;2.60;99.90
24226;DHT22;51462;51.422;5.514;2023-04-03T02:52:13;2.40;99.90
24226;DHT22;51462;51.422;5.514;2023-04-03T02:54:38;2.40;99.90
24226;DHT22;51462;51.422;5.514;2023-04-03T02:57:04;2.40;99.90
24226;DHT22;51462;51.422;5.514;2023-04-03T02:59:29;2.50;99.90
24226;DHT22;51462;51.422;5.514;2023-04-03T03:01:55;2.50;99.90
24226;DHT22;51462;51.422;5.514;2023-04-03T03:04:22;2.40;99.90
24226;DHT22;51462;51.422;5.514;2023-04-03T03:06:47;2.40;99.90
24226;DHT22;51462;51.422;5.514;2023-04-03T03:09:13;2.40;99.90
24226;DHT22;51462;51.422;5.514;2023-04-03T03:11:39;2.40;99.90
24226;DHT22;51462;51.422;5.514;2023-04-03T03:14:05;2.40;99.90
24226;DHT22;51462;51.422;5.514;2023-04-03T03:16:30;2.40;99.90
24226;DHT22;51462;51.422;5.514;2023-04-03T03:18:56;2.40;99.90
24226;DHT22;51462;51.422;5.514;2023-04-03T03:21:21;2.30;99.90
24226;DHT22;51462;51.422;5.514;2023-04-03T03:23:47;2.30;99.90
24226;DHT22;51462;51.422;5.514;2023-04-03T03:26:13;2.40;99.90
24226;DHT22;51462;51.422;5.514;2023-04-03T03:28:39;2.30;99.90
24226;DHT22;51462;51.422;5.514;2023-04-03T03:31:05;2.30;99.90
24226;DHT22;51462;51.422;5.514;2023-04-03T03:33:31;2.30;99.90
24226;DHT22;51462;51.422;5.514;2023-04-03T03:35:57;2.30;99.90
24226;DHT22;51462;51.422;5.514;2023-04-03T03:38:23;2.20;99.90
24226;DHT22;51462;51.422;5.514;2023-04-03T03:40:50;2.30;99.90
24226;DHT22;51462;51.422;5.514;2023-04-03T03:43:16;2.30;99.90
24226;DHT22;51462;51.422;5.514;2023-04-03T03:45:42;2.40;99.90
24226;DHT22;51462;51.422;5.514;2023-04-03T03:48:07;2.30;99.90
24226;DHT22;51462;51.422;5.514;2023-04-03T03:50:33;2.30;99.90
24226;DHT22;51462;51.422;5.514;2023-04-03T03:52:59;2.30;99.90
24226;DHT22;51462;51.422;5.514;2023-04-03T03:55:24;2.50;99.90
24226;DHT22;51462;51.422;5.514;2023-04-03T03:57:50;2.40;99.90
24226;DHT22;51462;51.422;5.514;2023-04-03T04:00:16;2.50;99.90
24226;DHT22;51462;51.422;5.514;2023-04-03T04:02:42;2.50;99.90
24226;DHT22;51462;51.422;5.514;2023-04-03T04:05:08;2.40;99.90
24226;DHT22;51462;51.422;5.514;2023-04-03T04:07:34;2.30;99.90
24226;DHT22;51462;51.422;5.514;2023-04-03T04:10:00;2.20;99.90
24226;DHT22;51462;51.422;5.514;2023-04-03T04:12:26;2.20;99.90
24226;DHT22;51462;51.422;5.514;2023-04-03T04:14:51;2.20;99.90
24226;DHT22;51462;51.422;5.514;2023-04-03T04:17:17;2.20;99.90
24226;DHT22;51462;51.422;5.514;2023-04-03T04:19:43;2.30;99.90
24226;DHT22;51462;51.422;5.514;2023-04-03T04:22:08;2.30;99.90
24226;DHT22;51462;51.422;5.514;2023-04-03T04:24:34;2.50;99.90
24226;DHT22;51462;51.422;5.514;2023-04-03T04:26:59;2.50;99.90
24226;DHT22;51462;51.422;5.514;2023-04-03T04:29:25;2.50;99.90
24226;DHT22;51462;51.422;5.514;2023-04-03T04:31:51;2.50;99.90
24226;DHT22;51462;51.422;5.514;2023-04-03T04:34:16;2.70;99.90
24226;DHT22;51462;51.422;5.514;2023-04-03T04:36:42;2.70;99.90
24226;DHT22;51462;51.422;5.514;2023-04-03T04:39:07;2.90;99.90
24226;DHT22;51462;51.422;5.514;2023-04-03T04:41:33;2.80;99.90
24226;DHT22;51462;51.422;5.514;2023-04-03T04:44:00;2.60;99.90
24226;DHT22;51462;51.422;5.514;2023-04-03T04:46:25;2.60;99.90
24226;DHT22;51462;51.422;5.514;2023-04-03T04:48:51;2.90;99.90
24226;DHT22;51462;51.422;5.514;2023-04-03T04:51:16;2.90;99.90
24226;DHT22;51462;51.422;5.514;2023-04-03T04:53:42;3.10;99.90
24226;DHT22;51462;51.422;5.514;2023-04-03T04:56:08;3.30;99.90
24226;DHT22;51462;51.422;5.514;2023-04-03T04:58:34;3.20;99.90
24226;DHT22;51462;51.422;5.514;2023-04-03T05:01:10;2.80;99.90
24226;DHT22;51462;51.422;5.514;2023-04-03T05:03:36;2.70;99.90
24226;DHT22;51462;51.422;5.514;2023-04-03T05:06:02;2.80;99.90
24226;DHT22;51462;51.422;5.514;2023-04-03T05:08:27;2.70;99.90
24226;DHT22;51462;51.422;5.514;2023-04-03T05:10:53;2.60;99.90
24226;DHT22;51462;51.422;5.514;2023-04-03T05:13:19;2.70;99.90
24226;DHT22;51462;51.422;5.514;2023-04-03T05:15:45;2.70;99.90
24226;DHT22;51462;51.422;5.514;2023-04-03T05:18:11;2.60;99.90
24226;DHT22;51462;51.422;5.514;2023-04-03T05:20:36;2.50;99.90
24226;DHT22;51462;51.422;5.514;2023-04-03T05:23:02;2.70;99.90
24226;DHT22;51462;51.422;5.514;2023-04-03T05:25:28;2.90;99.90
24226;DHT22;51462;51.422;5.514;2023-04-03T05:27:53;2.50;99.90
24226;DHT22;51462;51.422;5.514;2023-04-03T05:30:19;2.40;99.90
24226;DHT22;51462;51.422;5.514;2023-04-03T05:32:45;2.40;99.90
24226;DHT22;51462;51.422;5.514;2023-04-03T05:35:11;2.40;99.90
24226;DHT22;51462;51.422;5.514;2023-04-03T05:37:36;2.30;99.90
24226;DHT22;51462;51.422;5.514;2023-04-03T05:40:04;2.20;99.90
24226;DHT22;51462;51.422;5.514;2023-04-03T05:42:29;2.20;99.90
24226;DHT22;51462;51.422;5.514;2023-04-03T05:44:55;2.20;99.90
24226;DHT22;51462;51.422;5.514;2023-04-03T05:47:21;2.50;99.90
24226;DHT22;51462;51.422;5.514;2023-04-03T05:49:47;2.50;99.90
24226;DHT22;51462;51.422;5.514;2023-04-03T05:52:30;2.80;99.90
24226;DHT22;51462;51.422;5.514;2023-04-03T05:54:57;3.00;99.90
24226;DHT22;51462;51.422;5.514;2023-04-03T05:57:22;2.80;99.90
24226;DHT22;51462;51.422;5.514;2023-04-03T05:59:49;3.20;99.90
24226;DHT22;51462;51.422;5.514;2023-04-03T06:02:21;2.90;99.90
24226;DHT22;51462;51.422;5.514;2023-04-03T06:04:46;3.20;99.90
24226;DHT22;51462;51.422;5.514;2023-04-03T06:07:18;3.20;99.90
24226;DHT22;51462;51.422;5.514;2023-04-03T06:09:46;3.30;99.90
24226;DHT22;51462;51.422;5.514;2023-04-03T06:12:13;3.60;99.90
24226;DHT22;51462;51.422;5.514;2023-04-03T06:14:38;3.40;99.90
24226;DHT22;51462;51.422;5.514;2023-04-03T06:17:04;3.70;99.90
24226;DHT22;51462;51.422;5.514;2023-04-03T06:19:30;3.90;99.90
24226;DHT22;51462;51.422;5.514;2023-04-03T06:21:56;4.40;99.90
24226;DHT22;51462;51.422;5.514;2023-04-03T06:24:22;5.00;99.90
24226;DHT22;51462;51.422;5.514;2023-04-03T06:26:49;5.10;99.90
24226;DHT22;51462;51.422;5.514;2023-04-03T06:29:17;5.30;99.90
24226;DHT22;51462;51.422;5.514;2023-04-03T06:31:43;4.90;99.90
24226;DHT22;51462;51.422;5.514;2023-04-03T06:34:09;4.50;99.90
24226;DHT22;51462;51.422;5.514;2023-04-03T06:36:36;5.20;99.90
24226;DHT22;51462;51.422;5.514;2023-04-03T06:39:02;5.80;99.90
24226;DHT22;51462;51.422;5.514;2023-04-03T06:41:28;5.60;99.90
24226;DHT22;51462;51.422;5.514;2023-04-03T06:43:54;5.60;99.90
24226;DHT22;51462;51.422;5.514;2023-04-03T06:46:22;5.20;99.90
24226;DHT22;51462;51.422;5.514;2023-04-03T06:48:48;5.20;99.90
24226;DHT22;51462;51.422;5.514;2023-04-03T06:51:28;5.40;99.90
24226;DHT22;51462;51.422;5.514;2023-04-03T06:53:57;5.30;99.90
24226;DHT22;51462;51.422;5.514;2023-04-03T06:56:23;5.30;99.90
24226;DHT22;51462;51.422;5.514;2023-04-03T06:58:49;5.60;99.90
24226;DHT22;51462;51.422;5.514;2023-04-03T07:01:17;5.70;99.90
24226;DHT22;51462;51.422;5.514;2023-04-03T07:03:45;5.90;99.90
24226;DHT22;51462;51.422;5.514;2023-04-03T07:06:12;6.10;99.90
24226;DHT22;51462;51.422;5.514;2023-04-03T07:08:39;6.10;99.90
24226;DHT22;51462;51.422;5.514;2023-04-03T07:11:05;5.90;99.90
24226;DHT22;51462;51.422;5.514;2023-04-03T07:13:32;6.00;99.90
24226;DHT22;51462;51.422;5.514;2023-04-03T07:15:58;5.90;99.90
24226;DHT22;51462;51.422;5.514;2023-04-03T07:18:24;5.70;99.90
24226;DHT22;51462;51.422;5.514;2023-04-03T07:20:50;6.20;99.90
24226;DHT22;51462;51.422;5.514;2023-04-03T07:23:16;6.20;99.90
24226;DHT22;51462;51.422;5.514;2023-04-03T07:25:46;6.20;99.90
24226;DHT22;51462;51.422;5.514;2023-04-03T07:28:13;6.50;99.90
24226;DHT22;51462;51.422;5.514;2023-04-03T07:30:46;6.70;99.90
24226;DHT22;51462;51.422;5.514;2023-04-03T07:33:13;6.80;99.90
24226;DHT22;51462;51.422;5.514;2023-04-03T07:35:40;6.30;99.90
24226;DHT22;51462;51.422;5.514;2023-04-03T07:38:06;6.70;99.90
24226;DHT22;51462;51.422;5.514;2023-04-03T07:40:32;6.90;99.90
24226;DHT22;51462;51.422;5.514;2023-04-03T07:42:58;6.90;99.90
24226;DHT22;51462;51.422;5.514;2023-04-03T07:45:24;6.80;99.90
24226;DHT22;51462;51.422;5.514;2023-04-03T07:47:50;6.80;99.90
24226;DHT22;51462;51.422;5.514;2023-04-03T07:50:16;7.00;99.90
24226;DHT22;51462;51.422;5.514;2023-04-03T07:52:42;7.10;99.90
24226;DHT22;51462;51.422;5.514;2023-04-03T07:55:08;7.10;99.90
24226;DHT22;51462;51.422;5.514;2023-04-03T07:57:33;7.20;99.90
24226;DHT22;51462;51.422;5.514;2023-04-03T07:59:59;7.10;99.90
24226;DHT22;51462;51.422;5.514;2023-04-03T08:02:24;7.10;99.90
24226;DHT22;51462;51.422;5.514;2023-04-03T08:04:50;6.90;99.90
24226;DHT22;51462;51.422;5.514;2023-04-03T08:07:16;6.80;99.90
24226;DHT22;51462;51.422;5.514;2023-04-03T08:09:41;6.90;99.90
24226;DHT22;51462;51.422;5.514;2023-04-03T08:12:07;7.10;99.90
24226;DHT22;51462;51.422;5.514;2023-04-03T08:14:33;7.00;99.90
24226;DHT22;51462;51.422;5.514;2023-04-03T08:17:01;6.90;99.90
24226;DHT22;51462;51.422;5.514;2023-04-03T08:19:29;6.70;99.90
24226;DHT22;51462;51.422;5.514;2023-04-03T08:21:55;7.10;99.90
24226;DHT22;51462;51.422;5.514;2023-04-03T08:24:22;6.90;99.90
24226;DHT22;51462;51.422;5.514;2023-04-03T08:26:48;7.20;99.90
24226;DHT22;51462;51.422;5.514;2023-04-03T08:29:13;7.30;99.90
24226;DHT22;51462;51.422;5.514;2023-04-03T08:31:39;7.20;99.90
24226;DHT22;51462;51.422;5.514;2023-04-03T08:34:04;7.20;99.90
24226;DHT22;51462;51.422;5.514;2023-04-03T08:36:30;7.50;99.90
24226;DHT22;51462;51.422;5.514;2023-04-03T08:38:56;7.50;99.90
24226;DHT22;51462;51.422;5.514;2023-04-03T08:44:24;7.60;99.90
24226;DHT22;51462;51.422;5.514;2023-04-03T08:49:43;7.60;99.90
24226;DHT22;51462;51.422;5.514;2023-04-03T08:52:18;7.30;99.90
24226;DHT22;51462;51.422;5.514;2023-04-03T08:54:55;7.60;99.90
24226;DHT22;51462;51.422;5.514;2023-04-03T08:57:38;7.70;99.90
24226;DHT22;51462;51.422;5.514;2023-04-03T09:00:20;7.70;99.90
24226;DHT22;51462;51.422;5.514;2023-04-03T09:02:50;7.70;99.90
24226;DHT22;51462;51.422;5.514;2023-04-03T09:11:16;7.70;99.90
24226;DHT22;51462;51.422;5.514;2023-04-03T09:16:36;7.70;99.90
24226;DHT22;51462;51.422;5.514;2023-04-03T09:22:07;8.00;99.90
24226;DHT22;51462;51.422;5.514;2023-04-03T09:24:36;7.90;99.90
24226;DHT22;51462;51.422;5.514;2023-04-03T09:27:09;7.80;99.90
24226;DHT22;51462;51.422;5.514;2023-04-03T09:29:40;8.00;99.90
24226;DHT22;51462;51.422;5.514;2023-04-03T09:32:35;8.10;99.90
24226;DHT22;51462;51.422;5.514;2023-04-03T09:35:13;8.10;99.90
24226;DHT22;51462;51.422;5.514;2023-04-03T09:37:43;8.20;99.90
24226;DHT22;51462;51.422;5.514;2023-04-03T09:40:33;8.30;99.90
24226;DHT22;51462;51.422;5.514;2023-04-03T09:43:24;8.30;99.90
24226;DHT22;51462;51.422;5.514;2023-04-03T09:45:51;8.30;99.90
24226;DHT22;51462;51.422;5.514;2023-04-03T09:48:22;8.20;99.90
24226;DHT22;51462;51.422;5.514;2023-04-03T09:53:43;8.30;99.90
24226;DHT22;51462;51.422;5.514;2023-04-03T09:58:47;8.40;99.90
24226;DHT22;51462;51.422;5.514;2023-04-03T10:01:41;8.40;99.90
24226;DHT22;51462;51.422;5.514;2023-04-03T10:04:18;8.40;99.90
24226;DHT22;51462;51.422;5.514;2023-04-03T10:06:49;8.50;99.90
24226;DHT22;51462;51.422;5.514;2023-04-03T10:12:07;8.50;99.90
24226;DHT22;51462;51.422;5.514;2023-04-03T10:14:36;8.60;99.90
24226;DHT22;51462;51.422;5.514;2023-04-03T10:17:17;8.60;99.90
24226;DHT22;51462;51.422;5.514;2023-04-03T10:19:49;8.60;99.90
24226;DHT22;51462;51.422;5.514;2023-04-03T10:46:53;9.30;99.90
24226;DHT22;51462;51.422;5.514;2023-04-03T10:52:15;9.40;99.90
24226;DHT22;51462;51.422;5.514;2023-04-03T10:57:13;9.60;99.90
24226;DHT22;51462;51.422;5.514;2023-04-03T10:59:45;9.50;99.90
24226;DHT22;51462;51.422;5.514;2023-04-03T11:02:27;9.60;99.90
24226;DHT22;51462;51.422;5.514;2023-04-03T11:05:15;9.60;99.90
24226;DHT22;51462;51.422;5.514;2023-04-03T11:07:48;9.80;99.90
24226;DHT22;51462;51.422;5.514;2023-04-03T11:10:23;9.80;99.90
24226;DHT22;51462;51.422;5.514;2023-04-03T11:13:09;9.80;99.90
24226;DHT22;51462;51.422;5.514;2023-04-03T11:15:37;9.90;99.90
24226;DHT22;51462;51.422;5.514;2023-04-03T11:18:13;10.00;99.90
24226;DHT22;51462;51.422;5.514;2023-04-03T11:20:44;10.00;99.90
24226;DHT22;51462;51.422;5.514;2023-04-03T11:23:26;10.20;99.90
24226;DHT22;51462;51.422;5.514;2023-04-03T11:25:58;10.20;99.90
24226;DHT22;51462;51.422;5.514;2023-04-03T11:28:27;10.20;99.90
24226;DHT22;51462;51.422;5.514;2023-04-03T11:36:29;10.50;99.90
24226;DHT22;51462;51.422;5.514;2023-04-03T11:38:59;10.50;99.90
24226;DHT22;51462;51.422;5.514;2023-04-03T11:41:29;10.60;99.90
24226;DHT22;51462;51.422;5.514;2023-04-03T11:44:04;10.70;99.90
24226;DHT22;51462;51.422;5.514;2023-04-03T11:46:55;10.70;99.90
24226;DHT22;51462;51.422;5.514;2023-04-03T11:49:50;10.60;99.90
24226;DHT22;51462;51.422;5.514;2023-04-03T12:05:50;11.20;99.90
24226;DHT22;51462;51.422;5.514;2023-04-03T12:08:28;11.30;99.90
24226;DHT22;51462;51.422;5.514;2023-04-03T12:11:15;11.20;99.90
24226;DHT22;51462;51.422;5.514;2023-04-03T12:37:30;11.80;99.90
24226;DHT22;51462;51.422;5.514;2023-04-03T12:45:41;12.10;99.90
24226;DHT22;51462;51.422;5.514;2023-04-03T12:48:15;12.10;99.90
24226;DHT22;51462;51.422;5.514;2023-04-03T12:50:41;12.10;99.90
24226;DHT22;51462;51.422;5.514;2023-04-03T12:53:19;12.30;99.90
24226;DHT22;51462;51.422;5.514;2023-04-03T12:55:49;12.60;99.90
24226;DHT22;51462;51.422;5.514;2023-04-03T12:58:26;12.70;99.90
24226;DHT22;51462;51.422;5.514;2023-04-03T13:01:03;12.60;99.90
24226;DHT22;51462;51.422;5.514;2023-04-03T13:03:30;12.50;99.90
24226;DHT22;51462;51.422;5.514;2023-04-03T13:06:00;12.70;99.90
24226;DHT22;51462;51.422;5.514;2023-04-03T13:08:27;12.90;99.90
24226;DHT22;51462;51.422;5.514;2023-04-03T13:11:06;13.20;99.90
24226;DHT22;51462;51.422;5.514;2023-04-03T13:13:32;13.20;99.90
24226;DHT22;51462;51.422;5.514;2023-04-03T13:15:58;13.10;99.90
24226;DHT22;51462;51.422;5.514;2023-04-03T13:18:34;13.30;99.90
24226;DHT22;51462;51.422;5.514;2023-04-03T13:21:15;13.20;99.90
24226;DHT22;51462;51.422;5.514;2023-04-03T13:23:45;13.60;99.90
24226;DHT22;51462;51.422;5.514;2023-04-03T13:26:12;13.90;99.90
24226;DHT22;51462;51.422;5.514;2023-04-03T13:28:41;13.50;99.90
24226;DHT22;51462;51.422;5.514;2023-04-03T13:36:22;13.90;99.90
24226;DHT22;51462;51.422;5.514;2023-04-03T13:39:06;13.70;99.90
24226;DHT22;51462;51.422;5.514;2023-04-03T13:41:38;14.00;99.90
24226;DHT22;51462;51.422;5.514;2023-04-03T13:46:56;14.20;99.90
24226;DHT22;51462;51.422;5.514;2023-04-03T13:49:35;14.80;99.90
24226;DHT22;51462;51.422;5.514;2023-04-03T13:52:17;15.20;99.90
24226;DHT22;51462;51.422;5.514;2023-04-03T13:54:47;15.30;99.90
24226;DHT22;51462;51.422;5.514;2023-04-03T13:57:16;15.40;99.90
24226;DHT22;51462;51.422;5.514;2023-04-03T13:59:42;15.10;99.90
24226;DHT22;51462;51.422;5.514;2023-04-03T14:04:50;15.80;99.90
24226;DHT22;51462;51.422;5.514;2023-04-03T14:07:19;15.70;99.90
24226;DHT22;51462;51.422;5.514;2023-04-03T14:09:47;16.00;99.90
24226;DHT22;51462;51.422;5.514;2023-04-03T14:12:37;16.40;99.90
24226;DHT22;51462;51.422;5.514;2023-04-03T14:15:15;17.30;99.90
24226;DHT22;51462;51.422;5.514;2023-04-03T14:17:42;17.50;99.90
24226;DHT22;51462;51.422;5.514;2023-04-03T14:20:15;17.30;99.90
24226;DHT22;51462;51.422;5.514;2023-04-03T14:22:41;17.90;99.90
24226;DHT22;51462;51.422;5.514;2023-04-03T14:25:06;18.10;99.90
24226;DHT22;51462;51.422;5.514;2023-04-03T14:27:41;18.60;99.90
24226;DHT22;51462;51.422;5.514;2023-04-03T14:30:12;17.70;99.90
24226;DHT22;51462;51.422;5.514;2023-04-03T14:32:39;17.50;97.40
24226;DHT22;51462;51.422;5.514;2023-04-03T14:35:04;19.50;96.10
24226;DHT22;51462;51.422;5.514;2023-04-03T14:37:31;19.50;96.90
24226;DHT22;51462;51.422;5.514;2023-04-03T14:39:59;20.00;97.90
24226;DHT22;51462;51.422;5.514;2023-04-03T14:42:31;19.20;98.00
24226;DHT22;51462;51.422;5.514;2023-04-03T14:44:58;20.00;94.20
24226;DHT22;51462;51.422;5.514;2023-04-03T14:47:26;19.00;98.90
24226;DHT22;51462;51.422;5.514;2023-04-03T14:49:53;19.10;96.50
24226;DHT22;51462;51.422;5.514;2023-04-03T14:52:22;18.70;98.30
24226;DHT22;51462;51.422;5.514;2023-04-03T14:54:48;18.10;99.70
24226;DHT22;51462;51.422;5.514;2023-04-03T14:57:15;18.80;99.20
24226;DHT22;51462;51.422;5.514;2023-04-03T14:59:41;18.20;99.90
24226;DHT22;51462;51.422;5.514;2023-04-03T15:02:42;17.40;99.90
24226;DHT22;51462;51.422;5.514;2023-04-03T15:05:09;17.40;99.90
24226;DHT22;51462;51.422;5.514;2023-04-03T15:07:38;17.40;99.00
24226;DHT22;51462;51.422;5.514;2023-04-03T15:12:39;16.50;99.90
24226;DHT22;51462;51.422;5.514;2023-04-03T15:15:05;16.60;99.90
24226;DHT22;51462;51.422;5.514;2023-04-03T15:17:31;16.80;99.90
24226;DHT22;51462;51.422;5.514;2023-04-03T15:19:58;16.80;99.90
24226;DHT22;51462;51.422;5.514;2023-04-03T15:22:24;15.90;99.90
24226;DHT22;51462;51.422;5.514;2023-04-03T15:24:49;16.00;99.90
24226;DHT22;51462;51.422;5.514;2023-04-03T15:27:15;16.30;99.90
24226;DHT22;51462;51.422;5.514;2023-04-03T15:29:42;16.50;99.90
24226;DHT22;51462;51.422;5.514;2023-04-03T15:32:09;16.80;99.90
24226;DHT22;51462;51.422;5.514;2023-04-03T15:34:36;16.60;99.90
24226;DHT22;51462;51.422;5.514;2023-04-03T15:37:01;16.40;99.90
24226;DHT22;51462;51.422;5.514;2023-04-03T15:39:27;16.70;99.90
24226;DHT22;51462;51.422;5.514;2023-04-03T15:41:54;16.90;99.90
24226;DHT22;51462;51.422;5.514;2023-04-03T15:44:22;16.70;99.90
24226;DHT22;51462;51.422;5.514;2023-04-03T15:46:48;17.00;99.90
24226;DHT22;51462;51.422;5.514;2023-04-03T15:49:17;17.20;99.90
24226;DHT22;51462;51.422;5.514;2023-04-03T15:51:42;17.20;99.90
24226;DHT22;51462;51.422;5.514;2023-04-03T15:54:08;17.00;99.90
24226;DHT22;51462;51.422;5.514;2023-04-03T15:56:34;17.00;99.90
24226;DHT22;51462;51.422;5.514;2023-04-03T15:58:59;17.70;99.90
24226;DHT22;51462;51.422;5.514;2023-04-03T16:01:25;18.00;99.90
24226;DHT22;51462;51.422;5.514;2023-04-03T16:03:51;17.30;99.90
24226;DHT22;51462;51.422;5.514;2023-04-03T16:06:17;16.60;99.90
24226;DHT22;51462;51.422;5.514;2023-04-03T16:08:44;16.40;99.90
24226;DHT22;51462;51.422;5.514;2023-04-03T16:11:10;17.00;99.90
24226;DHT22;51462;51.422;5.514;2023-04-03T16:13:36;17.20;99.20
24226;DHT22;51462;51.422;5.514;2023-04-03T16:16:02;17.00;99.90
24226;DHT22;51462;51.422;5.514;2023-04-03T16:18:29;16.80;99.90
24226;DHT22;51462;51.422;5.514;2023-04-03T16:20:55;16.50;99.90
24226;DHT22;51462;51.422;5.514;2023-04-03T16:23:21;16.50;99.90
24226;DHT22;51462;51.422;5.514;2023-04-03T16:25:47;16.50;99.90
24226;DHT22;51462;51.422;5.514;2023-04-03T16:28:14;16.20;99.90
24226;DHT22;51462;51.422;5.514;2023-04-03T16:30:43;16.10;99.90
24226;DHT22;51462;51.422;5.514;2023-04-03T16:33:10;16.50;99.90
24226;DHT22;51462;51.422;5.514;2023-04-03T16:35:36;16.20;99.90
24226;DHT22;51462;51.422;5.514;2023-04-03T16:38:03;16.30;99.90
24226;DHT22;51462;51.422;5.514;2023-04-03T16:40:28;16.00;99.90
24226;DHT22;51462;51.422;5.514;2023-04-03T16:42:54;15.80;99.90
24226;DHT22;51462;51.422;5.514;2023-04-03T16:45:20;16.20;99.90
24226;DHT22;51462;51.422;5.514;2023-04-03T16:47:45;16.50;99.90
24226;DHT22;51462;51.422;5.514;2023-04-03T16:50:11;15.80;99.90
24226;DHT22;51462;51.422;5.514;2023-04-03T16:52:37;15.60;99.90
24226;DHT22;51462;51.422;5.514;2023-04-03T16:55:02;15.80;99.20
24226;DHT22;51462;51.422;5.514;2023-04-03T16:57:28;15.90;99.90
24226;DHT22;51462;51.422;5.514;2023-04-03T16:59:54;15.60;99.90
24226;DHT22;51462;51.422;5.514;2023-04-03T17:02:21;15.60;99.90
24226;DHT22;51462;51.422;5.514;2023-04-03T17:04:47;15.80;99.90
24226;DHT22;51462;51.422;5.514;2023-04-03T17:07:12;15.70;99.90
24226;DHT22;51462;51.422;5.514;2023-04-03T17:09:38;15.40;99.90
24226;DHT22;51462;51.422;5.514;2023-04-03T17:12:04;15.10;99.90
24226;DHT22;51462;51.422;5.514;2023-04-03T17:14:29;15.00;99.90
24226;DHT22;51462;51.422;5.514;2023-04-03T17:16:55;15.00;99.90
24226;DHT22;51462;51.422;5.514;2023-04-03T17:19:21;15.10;99.90
24226;DHT22;51462;51.422;5.514;2023-04-03T17:21:48;15.30;99.90
24226;DHT22;51462;51.422;5.514;2023-04-03T17:24:14;15.00;99.90
24226;DHT22;51462;51.422;5.514;2023-04-03T17:26:41;15.00;99.90
24226;DHT22;51462;51.422;5.514;2023-04-03T17:29:07;15.10;99.90
24226;DHT22;51462;51.422;5.514;2023-04-03T17:31:32;15.20;99.90
24226;DHT22;51462;51.422;5.514;2023-04-03T17:33:58;15.20;99.90
24226;DHT22;51462;51.422;5.514;2023-04-03T17:36:30;15.10;99.90
24226;DHT22;51462;51.422;5.514;2023-04-03T17:38:56;15.30;99.90
24226;DHT22;51462;51.422;5.514;2023-04-03T17:41:22;15.10;99.90
24226;DHT22;51462;51.422;5.514;2023-04-03T17:43:48;14.90;99.90
24226;DHT22;51462;51.422;5.514;2023-04-03T17:46:14;14.70;99.90
24226;DHT22;51462;51.422;5.514;2023-04-03T17:48:41;14.80;99.90